Crystal Mountain, Washington
Current Conditions -  °F | °C
As of 12:53 AM on Sunday 23 Nov 2014 (Local Time) from KRNT Reporting Station
Broken Clouds Broken Clouds  
Wind Chill:   Ceiling: 8500
Heat Index:   Visibility: 10mi
Dew Point:   Wind: 8mph
Humidity: 86%   Direction: 150°SSE
Pressure: 30.15"   Gusts: NA
Location:  47.1782°N, 121.641°W
Report Text: KRNT 230853Z AUTO 15007KT 10SM FEW045 BKN085 BKN120 08/06 A3015 RMK AO2 SLP214 T00830061 51014
Loading
Personal Weather Stations






























Interactive Weather Map New forecast layout! Learn more

10-Day Weather Forecast

Advertisements
Track Severe Weather on mobile